Guidonia, Italy

6:53 PM CEST on August 20, 2014 (GMT +0200)
Tivoli (RM), Roma | Change Station
CLOSE
Current Station
Personal Weather Station
Location: Tivoli, LAZIO
Elevation: 830 ft
Nearby Weather Stations

Elev 830 ft 41.96 °N, 12.80 °E | Updated 43 seconds ago

Partly Cloudy
Partly Cloudy
84.2 °F
Feels Like 86 °F
N
5.0
Wind Variable Wind from SSW
Gusts 8.0 mph

Today
High -- | Low -- °F
--% Chance of Precip.
Yesterday
High -- | Low -- °F
Precip. -- in
6:21 AM 8:02 PM
Waning Crescent, 20% visible
Pressure 29.92 in
Visibility 6.2 miles
Clouds Few 1800 ft
Heat Index 86 °F
Dew Point 65 °F
Humidity 53%
Rainfall 0.00 in
Snow Depth Not available.
UV 1 out of 12
Pollen Not available.
Air Quality Not available.
Flu Activity Not available.
METAR LIRA 201615Z 19010KT 150V220 9999 FEW018 29/19 Q1013

More Conditions Fewer Conditions

Pressure 29.92 in
Visibility 6.2 miles
Clouds Few 1800 ft
Heat Index 86 °F
Dew Point 65 °F
Humidity 53%
Rainfall 0.00 in
Snow Depth Not available.
UV 1 out of 12
Pollen Not available.
Air Quality Not available.
Flu Activity Not available.
METAR LIRA 201615Z 19010KT 150V220 9999 FEW018 29/19 Q1013

More Conditions Fewer Conditions

10-Day Weather Forecast

Almanac

Astronomy

Aug. 20, 2014 Rise Set
Actual Time 6:21 AM CEST 8:02 PM CEST
Civil Twilight 5:52 AM CEST 8:31 PM CEST
Nautical Twilight 5:16 AM CEST 9:07 PM CEST
Astronomical Twilight 4:37 AM CEST 9:45 PM CEST
Moon 1:46 AM CEST 4:35 PM CEST
Length of Visible Light 14h 39m
Length of Day
13h 40m
Tomorrow will be 2m 34s shorter.
Waning Crescent, 20% of the Moon is Illuminated
Today
Waning Crescent
Aug 25
New
Sep 2
First Quarter
Sep 8
Full
Sep 15
Last Quarter

Today's Extremes

Country Highs Country Lows

Community

WunderPhotos

Upload Photos

1,745,691 photos uploaded!

WunderBlogs® & News

Nearby

Snow Depth

Not available.

Earthquake Activity

City Distance Mag. Time & Date
No recent earthquake activity has been reported nearby.
Minimum magnitude displayed is 2.5.

Coastal Water Temperatures

Place Temperature
No Stations Reporting

Nearby Weather Stations